LKPR/PRG METAR and TAF weather

Enter ICAO airport designator
Station Type Date Time Source
LKPR METAR 2019/04/20 22:00 UTC NOAA

LKPR 202200Z 05004KT 010V090 CAVOK 10/M02 Q1026 NOSIG


Station Type Date Time Source
LKPR Decoded METAR 2019/04/20 22:00 UTC NOAA

Praha / Ruzyne, Czech Republic (LKPR) 50-06N 014-15E 365M
Apr 20, 2019 - 06:00 PM EDT / 2019.04.20 2200 UTC
Wind: from the NE (050 degrees) at 5 MPH (4 KT) (direction variable):0
Visibility: greater than 7 mile(s):0
Temperature: 50 F (10 C)
Dew Point: 28 F (-2 C)
Relative Humidity: 42%
Pressure (altimeter): 30.30 in. Hg (1026 hPa)
ob: LKPR 202200Z 05004KT 010V090 CAVOK 10/M02 Q1026 NOSIG
cycle: 22

Station Type Date Time Source
LKPR TAF 2019/04/20 18:05 UTC NOAA

TAF LKPR 201700Z 2018/2200 06006KT CAVOK

Example: see airport list